Date,TemperatureHighF,TemperatureAvgF,TemperatureLowF,DewpointHighF,DewpointAvgF,DewpointLowF,HumidityHigh,HumidityAvg,HumidityLow,PressureMaxIn,PressureMinIn,WindSpeedMaxMPH,WindSpeedAvgMPH,GustSpeedMaxMPH,PrecipitationSumIn
2013-1-1,25,11,1,-100,-100,-100,0,0,100,0.00,40.00,5,2,0,0.00
2013-1-2,27,8,-12,-100,-100,-100,0,0,100,0.00,40.00,4,2,0,0.00
2013-1-3,30,14,-9,-100,-100,-100,0,0,100,0.00,40.00,5,2,0,0.00
2013-1-4,36,19,1,-100,-100,-100,0,0,100,0.00,40.00,5,2,0,0.09
2013-1-5,39,25,5,-100,-100,-100,0,0,100,0.00,40.00,3,1,0,0.14
2013-1-6,36,24,16,-100,-100,-100,0,0,100,0.00,40.00,5,2,0,0.19
2013-1-7,38,23,4,-100,-100,-100,0,0,100,0.00,40.00,4,2,0,0.11
2013-1-8,42,27,16,-100,-100,-100,0,0,100,0.00,40.00,5,2,0,0.39
2013-1-9,49,36,16,-100,-100,-100,0,0,100,0.00,40.00,7,4,0,0.01
2013-1-10,24,19,11,-100,-100,-100,0,0,100,0.00,40.00,5,3,0,0.01
2013-1-13,23,2,-22,-100,-100,-100,0,0,100,0.00,40.00,6,3,0,0.00
2013-1-14,26,8,-15,-100,-100,-100,0,0,100,0.00,40.00,4,2,0,0.00
2013-1-15,36,21,-3,-100,-100,-100,0,0,100,0.00,40.00,4,2,0,0.17
2013-1-16,39,21,3,-100,-100,-100,0,0,100,0.00,40.00,5,2,0,0.03
2013-1-17,34,19,-4,-100,-100,-100,0,0,100,0.00,40.00,5,3,0,0.01
2013-1-18,35,18,-6,-100,-100,-100,0,0,100,0.00,40.00,5,2,0,0.01
2013-1-19,36,17,-7,-100,-100,-100,0,0,100,0.00,40.00,5,3,0,0.00
2013-1-20,37,17,-6,-100,-100,-100,0,0,100,0.00,40.00,5,2,0,0.00
2013-1-21,44,22,-3,-100,-100,-100,0,0,100,0.00,40.00,5,2,0,0.00
2013-1-22,46,27,4,-100,-100,-100,0,0,100,0.00,40.00,5,2,0,0.00
2013-1-23,51,37,20,-100,-100,-100,0,0,100,0.00,40.00,5,3,0,0.00
2013-1-24,43,36,33,-100,-100,-100,0,0,100,0.00,40.00,3,1,0,0.09
2013-1-25,44,37,33,-100,-100,-100,0,0,100,0.00,40.00,5,1,0,0.06
2013-1-26,46,36,29,-100,-100,-100,0,0,100,0.00,40.00,4,2,0,0.03
2013-1-27,34,25,11,-100,-100,-100,0,0,100,0.00,40.00,6,3,0,0.06
2013-1-28,33,20,3,-100,-100,-100,0,0,100,0.00,40.00,7,2,0,0.02
2013-1-29,45,35,27,-100,-100,-100,0,0,100,0.00,40.00,9,3,0,0.00
2013-1-30,50,32,20,-100,-100,-100,0,0,100,0.00,40.00,5,2,0,0.01
2013-1-31,56,33,14,-100,-100,-100,0,0,100,0.00,40.00,4,2,0,0.01
2013-2-1,50,28,13,-100,-100,-100,0,0,100,0.00,40.00,5,2,0,0.00
2013-2-2,41,27,17,-100,-100,-100,0,0,100,0.00,40.00,4,2,0,0.00
2013-2-3,51,30,14,-100,-100,-100,0,0,100,0.00,40.00,6,2,0,0.00
2013-2-4,59,32,15,-100,-100,-100,0,0,100,0.00,40.00,5,2,0,0.01
2013-2-5,47,34,21,-100,-100,-100,0,0,100,0.00,40.00,6,3,0,0.01
2013-2-6,57,26,11,-100,-100,-100,0,0,100,0.00,40.00,4,2,0,0.00
2013-2-7,38,31,20,-100,-100,-100,0,0,100,0.00,40.00,5,2,0,0.01
2013-2-8,30,23,14,-100,-100,-100,0,0,100,0.00,40.00,5,3,0,0.01
2013-2-9,34,22,9,-100,-100,-100,0,0,100,0.00,40.00,7,3,0,0.01
2013-2-10,35,22,7,-100,-100,-100,0,0,100,0.00,40.00,10,3,0,0.00
2013-2-11,41,26,10,-100,-100,-100,0,0,100,0.00,40.00,7,4,0,0.00
2013-2-12,48,27,10,-100,-100,-100,0,0,100,0.00,40.00,6,3,0,0.00
2013-2-13,49,30,12,-100,-100,-100,0,0,100,0.00,40.00,7,2,0,0.00
2013-2-14,51,31,18,-100,-100,-100,0,0,100,0.00,40.00,5,2,0,0.00
2013-2-15,56,33,18,-100,-100,-100,0,0,100,0.00,40.00,6,2,0,0.01
2013-2-16,52,31,15,-100,-100,-100,0,0,100,0.00,40.00,4,2,0,0.01
2013-2-17,51,32,16,-100,-100,-100,0,0,100,0.00,40.00,5,2,0,0.00
2013-2-18,47,31,18,-100,-100,-100,0,0,100,0.00,40.00,5,2,0,0.00
2013-2-19,34,28,21,-100,-100,-100,0,0,100,0.00,40.00,6,3,0,0.02
2013-2-20,38,26,21,-100,-100,-100,0,0,100,0.00,40.00,6,1,0,0.04
2013-2-21,39,28,14,-100,-100,-100,0,0,100,0.00,40.00,7,3,0,0.01
2013-2-22,50,30,14,-100,-100,-100,0,0,100,0.00,40.00,4,2,0,0.01
2013-2-23,38,32,19,-100,-100,-100,0,0,100,0.00,40.00,6,4,0,0.01
2013-2-24,42,25,11,-100,-100,-100,0,0,100,0.00,40.00,5,3,0,0.01
2013-2-25,45,30,16,-100,-100,-100,0,0,100,0.00,40.00,5,3,0,0.00
2013-2-26,41,26,13,-100,-100,-100,0,0,100,0.00,40.00,8,3,0,0.00
2013-2-27,51,30,12,-100,-100,-100,0,0,100,0.00,40.00,4,2,0,0.00
2013-2-28,55,37,24,-100,-100,-100,0,0,100,0.00,40.00,4,2,0,0.00
2013-3-1,62,39,23,-100,-100,-100,0,0,100,0.00,40.00,5,2,0,0.00
2013-3-2,56,40,27,-100,-100,-100,0,0,100,0.00,40.00,4,2,0,0.00
2013-3-3,43,38,33,-100,-100,-100,0,0,100,0.00,40.00,3,1,0,0.26
2013-3-4,53,37,30,-100,-100,-100,0,0,100,0.00,40.00,4,2,0,0.04
2013-3-5,48,41,31,-100,-100,-100,0,0,100,0.00,40.00,7,4,0,0.02
2013-3-6,38,30,21,-100,-100,-100,0,0,100,0.00,40.00,8,4,0,0.35
2013-3-7,36,28,21,-100,-100,-100,0,0,100,0.00,40.00,3,1,0,0.05
2013-3-8,40,31,25,-100,-100,-100,0,0,100,0.00,40.00,3,2,0,0.05
2013-3-9,46,32,20,-100,-100,-100,0,0,100,0.00,40.00,9,3,0,0.02
2013-3-10,54,35,15,-100,-100,-100,0,0,100,0.00,40.00,5,3,0,0.02
2013-3-11,61,38,21,-100,-100,-100,0,0,100,0.00,40.00,5,2,0,0.00
2013-3-12,65,42,24,-100,-100,-100,0,0,100,0.00,40.00,5,2,0,0.00
2013-3-13,67,44,27,-100,-100,-100,0,0,100,0.00,40.00,5,2,0,0.00
2013-3-14,64,45,32,-100,-100,-100,0,0,100,0.00,40.00,6,3,0,0.00
2013-3-15,61,42,27,-100,-100,-100,0,0,100,0.00,40.00,6,2,0,0.00
2013-3-16,56,40,24,-100,-100,-100,0,0,100,0.00,40.00,7,2,0,0.00
2013-3-17,55,40,25,-100,-100,-100,0,0,100,0.00,40.00,5,3,0,0.00
2013-3-18,55,38,22,-100,-100,-100,0,0,100,0.00,40.00,4,2,0,0.00
2013-3-19,52,43,35,-100,-100,-100,0,0,100,0.00,40.00,6,2,0,0.00
2013-3-20,46,42,37,-100,-100,-100,0,0,100,0.00,40.00,6,4,0,0.20
2013-3-21,50,40,27,-100,-100,-100,0,0,100,0.00,40.00,5,2,0,0.01
2013-3-22,47,32,18,-100,-100,-100,0,0,100,0.00,40.00,6,2,0,0.00
2013-3-23,54,35,17,-100,-100,-100,0,0,100,0.00,40.00,7,3,0,0.00
2013-3-24,59,40,23,-100,-100,-100,0,0,100,0.00,40.00,6,2,0,0.00
2013-3-25,58,41,23,-100,-100,-100,0,0,100,0.00,40.00,6,3,0,0.00
2013-3-26,50,44,35,-100,-100,-100,0,0,100,0.00,40.00,5,3,0,0.00
2013-3-27,54,40,27,-100,-100,-100,0,0,100,0.00,40.00,5,2,0,0.00
2013-3-28,53,41,31,-100,-100,-100,0,0,100,0.00,40.00,5,2,0,0.01
2013-3-29,61,43,29,-100,-100,-100,0,0,100,0.00,40.00,5,2,0,0.01
2013-3-30,63,44,28,-100,-100,-100,0,0,100,0.00,40.00,5,2,0,0.00
2013-3-31,47,41,32,-100,-100,-100,0,0,100,0.00,40.00,5,2,0,0.40
2013-4-1,48,39,32,-100,-100,-100,0,0,100,0.00,40.00,6,2,0,0.02
2013-4-2,60,42,28,-100,-100,-100,0,0,100,0.00,40.00,5,2,0,0.01
2013-4-3,64,44,30,-100,-100,-100,0,0,100,0.00,40.00,4,2,0,0.00
2013-4-4,50,46,36,-100,-100,-100,0,0,100,0.00,40.00,6,3,0,0.04
2013-4-5,52,43,32,-100,-100,-100,0,0,100,0.00,40.00,6,3,0,0.01
2013-4-6,52,43,35,-100,-100,-100,0,0,100,0.00,40.00,6,3,0,0.01
2013-4-7,53,44,34,-100,-100,-100,0,0,100,0.00,40.00,9,4,0,0.02
2013-4-8,39,34,29,-100,-100,-100,0,0,100,0.00,40.00,8,3,0,0.13
2013-4-9,50,39,30,-100,-100,-100,0,0,100,0.00,40.00,9,5,0,0.11
2013-4-10,66,47,28,-100,-100,-100,0,0,100,0.00,40.00,7,3,0,0.00
2013-4-11,59,48,37,-100,-100,-100,0,0,100,0.00,40.00,6,3,0,0.31
2013-4-12,64,44,26,-100,-100,-100,0,0,100,0.00,40.00,6,2,0,0.08
2013-4-13,58,47,32,-100,-100,-100,0,0,100,0.00,40.00,7,4,0,0.00
2013-4-14,53,43,29,-100,-100,-100,0,0,100,0.00,40.00,8,4,0,0.00
2013-4-15,43,36,30,-100,-100,-100,0,0,100,0.00,40.00,7,4,0,0.02
2013-4-16,36,30,27,-100,-100,-100,0,0,100,0.00,40.00,10,4,0,0.02
2013-4-17,43,31,17,-100,-100,-100,0,0,100,0.00,40.00,10,4,0,0.02
2013-4-18,57,38,20,-100,-100,-100,0,0,100,0.00,40.00,6,2,0,0.01
2013-4-19,60,44,25,-100,-100,-100,0,0,100,0.00,40.00,7,3,0,0.00
2013-4-20,64,47,27,-100,-100,-100,0,0,100,0.00,40.00,6,2,0,0.00
2013-4-21,69,49,27,-100,-100,-100,0,0,100,0.00,40.00,6,2,0,0.00
2013-4-22,66,49,31,-100,-100,-100,0,0,100,0.00,40.00,7,3,0,0.00
2013-4-23,63,44,24,-100,-100,-100,0,0,100,0.00,40.00,6,3,0,0.00
2013-4-24,60,45,27,-100,-100,-100,0,0,100,0.00,40.00,5,3,0,0.00
2013-4-25,65,46,24,-100,-100,-100,0,0,100,0.00,40.00,5,2,0,0.00
2013-4-26,70,50,29,-100,-100,-100,0,0,100,0.00,40.00,5,3,0,0.00
2013-4-27,71,53,33,-100,-100,-100,0,0,100,0.00,40.00,5,2,0,0.00
2013-4-28,73,52,30,-100,-100,-100,0,0,100,0.00,40.00,5,2,0,0.00
2013-4-29,71,54,35,-100,-100,-100,0,0,100,0.00,40.00,7,3,0,0.00
2013-4-30,65,52,37,-100,-100,-100,0,0,100,0.00,40.00,6,4,0,0.00
2013-5-1,62,45,25,-100,-100,-100,0,0,100,0.00,40.00,7,3,0,0.00
2013-5-2,71,48,24,-100,-100,-100,0,0,100,0.00,40.00,6,3,0,0.00
2013-5-3,71,53,31,-100,-100,-100,0,0,100,0.00,40.00,6,3,0,0.00
2013-5-4,61,46,31,-100,-100,-100,0,0,100,0.00,40.00,5,2,0,0.00
2013-5-5,59,46,33,-100,-100,-100,0,0,100,0.00,40.00,5,3,0,0.02
2013-5-6,47,43,38,-100,-100,-100,0,0,100,0.00,40.00,3,2,0,0.67
2013-5-7,46,42,38,-100,-100,-100,0,0,100,0.00,40.00,3,2,0,0.64
2013-5-8,59,49,42,-100,-100,-100,0,0,100,0.00,40.00,4,2,0,0.42
2013-5-9,66,52,40,-100,-100,-100,0,0,100,0.00,40.00,6,2,0,0.04
2013-5-10,72,54,39,-100,-100,-100,0,0,100,0.00,40.00,4,2,0,0.00
2013-5-11,76,57,38,-100,-100,-100,0,0,100,0.00,40.00,5,2,0,0.00
2013-5-12,74,58,40,-100,-100,-100,0,0,100,0.00,40.00,5,2,0,0.00
2013-5-13,73,59,39,-100,-100,-100,0,0,100,0.00,40.00,7,3,0,0.00
2013-5-14,72,56,37,-100,-100,-100,0,0,100,0.00,40.00,6,2,0,0.00
2013-5-15,68,53,37,-100,-100,-100,0,0,100,0.00,40.00,7,3,0,0.00
2013-5-16,52,46,39,-100,-100,-100,0,0,100,0.00,40.00,6,3,0,0.00
2013-5-17,57,47,34,-100,-100,-100,0,0,100,0.00,40.00,7,3,0,0.00
2013-5-18,61,46,28,-100,-100,-100,0,0,100,0.00,40.00,6,3,0,0.00
2013-5-19,64,49,32,-100,-100,-100,0,0,100,0.00,40.00,6,2,0,0.00
2013-5-20,72,55,30,-100,-100,-100,0,0,100,0.00,40.00,5,3,0,0.00
2013-5-21,64,55,38,-100,-100,-100,0,0,100,0.00,40.00,7,4,0,0.00
2013-5-22,54,44,33,-100,-100,-100,0,0,100,0.00,40.00,7,3,0,0.00
2013-5-23,53,40,23,-100,-100,-100,0,0,100,0.00,40.00,6,3,0,0.00
2013-5-24,63,46,25,-100,-100,-100,0,0,100,0.00,40.00,6,2,0,0.00
2013-5-25,63,48,30,-100,-100,-100,0,0,100,0.00,40.00,5,3,0,0.00
2013-5-26,60,48,32,-100,-100,-100,0,0,100,0.00,40.00,6,3,0,0.00
2013-5-27,56,43,30,-100,-100,-100,0,0,100,0.00,40.00,4,2,0,0.06
2013-5-28,58,50,43,-100,-100,-100,0,0,100,0.00,40.00,6,3,0,0.22
2013-5-29,60,51,40,-100,-100,-100,0,0,100,0.00,40.00,7,3,0,0.02
2013-5-30,42,36,32,-100,-100,-100,0,0,100,0.00,40.00,3,2,0,0.01
2013-5-31,74,66,48,-100,-100,-100,0,0,100,0.00,40.00,5,3,0,0.00
2013-6-1,79,58,34,-100,-100,-100,0,0,100,0.00,40.00,6,3,0,0.00
2013-6-2,76,60,36,-100,-100,-100,0,0,100,0.00,40.00,5,2,0,0.00
2013-6-3,78,61,39,-100,-100,-100,0,0,100,0.00,40.00,6,2,0,0.00
2013-6-4,81,62,40,-100,-100,-100,0,0,100,0.00,40.00,5,2,0,0.00
2013-6-5,82,64,43,-100,-100,-100,0,0,100,0.00,40.00,5,2,0,0.00
2013-6-6,84,63,43,-100,-100,-100,0,0,100,0.00,40.00,6,2,0,0.00
2013-6-7,86,64,42,-100,-100,-100,0,0,100,0.00,40.00,5,2,0,0.00
2013-6-8,88,69,45,-100,-100,-100,0,0,100,0.00,40.00,6,2,0,0.00
2013-6-9,87,64,47,-100,-100,-100,0,0,100,0.00,40.00,6,2,0,0.08
2013-6-10,70,58,49,-100,-100,-100,0,0,100,0.00,40.00,6,2,0,0.01
2013-6-11,70,59,43,-100,-100,-100,0,0,100,0.00,40.00,7,3,0,0.00
2013-6-12,70,61,43,-100,-100,-100,0,0,100,0.00,40.00,8,4,0,0.00
2013-6-13,66,50,29,-100,-100,-100,0,0,100,0.00,40.00,7,3,0,0.00
2013-6-14,70,52,32,-100,-100,-100,0,0,100,0.00,40.00,5,2,0,0.00
2013-6-15,71,55,35,-100,-100,-100,0,0,100,0.00,40.00,7,3,0,0.00
2013-6-16,70,51,32,-100,-100,-100,0,0,100,0.00,40.00,6,2,0,0.00
2013-6-17,72,56,34,-100,-100,-100,0,0,100,0.00,40.00,7,3,0,0.00
2013-6-18,65,54,40,-100,-100,-100,0,0,100,0.00,40.00,7,4,0,0.00
2013-6-19,60,48,32,-100,-100,-100,0,0,100,0.00,40.00,7,4,0,0.00
2013-6-20,62,41,28,-100,-100,-100,0,0,100,0.00,40.00,6,2,0,0.00
2013-6-22,73,64,40,-100,-100,-100,0,0,100,0.00,40.00,5,3,0,0.00
2013-6-23,65,53,37,-100,-100,-100,0,0,100,0.00,40.00,6,3,0,0.00
2013-6-24,56,52,48,-100,-100,-100,0,0,100,0.00,40.00,5,3,0,0.04
2013-6-25,63,55,48,-100,-100,-100,0,0,100,0.00,40.00,6,2,0,0.07
2013-6-26,74,63,52,-100,-100,-100,0,0,100,0.00,40.00,6,4,0,0.01
2013-6-27,83,64,42,-100,-100,-100,0,0,100,0.00,40.00,6,2,0,0.00
2013-6-28,89,69,48,-100,-100,-100,0,0,100,0.00,40.00,7,3,0,0.00
2013-6-29,87,68,48,-100,-100,-100,0,0,100,0.00,40.00,5,2,0,0.00
2013-6-30,88,71,48,-100,-100,-100,0,0,100,0.00,40.00,6,2,0,0.00
2013-7-1,90,72,54,-100,-100,-100,0,0,100,0.00,40.00,6,3,0,0.00
2013-7-2,90,71,56,-100,-100,-100,0,0,100,0.00,40.00,5,2,0,0.00
2013-7-3,88,68,49,-100,-100,-100,0,0,100,0.00,40.00,6,2,0,0.00
2013-7-4,85,69,51,-100,-100,-100,0,0,100,0.00,40.00,6,2,0,0.00
2013-7-5,84,69,48,-100,-100,-100,0,0,100,0.00,40.00,7,3,0,0.00
2013-7-6,80,65,43,-100,-100,-100,0,0,100,0.00,40.00,7,3,0,0.00
2013-7-7,81,64,42,-100,-100,-100,0,0,100,0.00,40.00,6,3,0,0.00
2013-7-8,81,60,43,-100,-100,-100,0,0,100,0.00,40.00,6,2,0,0.00
2013-7-9,79,64,42,-100,-100,-100,0,0,100,0.00,40.00,6,3,0,0.00
2013-7-10,80,61,39,-100,-100,-100,0,0,100,0.00,40.00,7,3,0,0.00
2013-7-11,77,63,48,-100,-100,-100,0,0,100,0.00,40.00,7,3,0,0.00
2013-7-12,77,60,38,-100,-100,-100,0,0,100,0.00,40.00,7,3,0,0.00
2013-7-13,78,61,35,-100,-100,-100,0,0,100,0.00,40.00,6,3,0,0.00
2013-7-14,80,64,41,-100,-100,-100,0,0,100,0.00,40.00,5,2,0,0.00
2013-7-15,80,65,44,-100,-100,-100,0,0,100,0.00,40.00,6,2,0,0.00
2013-7-16,77,63,46,-100,-100,-100,0,0,100,0.00,40.00,6,3,0,0.00
2013-7-17,81,62,36,-100,-100,-100,0,0,100,0.00,40.00,5,2,0,0.00
2013-7-18,87,68,41,-100,-100,-100,0,0,100,0.00,40.00,6,3,0,0.00
2013-7-19,90,69,44,-100,-100,-100,0,0,100,0.00,40.00,5,2,0,0.00
2013-7-20,93,72,48,-100,-100,-100,0,0,100,0.00,40.00,7,2,0,0.01
2013-7-21,91,72,50,-100,-100,-100,0,0,100,0.00,40.00,7,3,0,0.01
2013-7-22,85,68,49,-100,-100,-100,0,0,100,0.00,40.00,7,3,0,0.00
2013-7-23,78,66,53,-100,-100,-100,0,0,100,0.00,40.00,4,2,0,0.00
2013-7-24,81,68,50,-100,-100,-100,0,0,100,0.00,40.00,6,2,0,0.00
2013-7-25,85,66,49,-100,-100,-100,0,0,100,0.00,40.00,6,2,0,0.12
2013-7-26,83,66,51,-100,-100,-100,0,0,100,0.00,40.00,6,2,0,0.12
2013-7-27,83,66,45,-100,-100,-100,0,0,100,0.00,40.00,6,3,0,0.00
2013-7-28,80,64,43,-100,-100,-100,0,0,100,0.00,40.00,7,3,0,0.00
2013-7-29,77,62,41,-100,-100,-100,0,0,100,0.00,40.00,7,3,0,0.00
2013-7-30,77,62,40,-100,-100,-100,0,0,100,0.00,40.00,6,3,0,0.00
2013-7-31,76,64,50,-100,-100,-100,0,0,100,0.00,40.00,6,3,0,0.00
2013-8-1,71,60,40,-100,-100,-100,0,0,100,0.00,40.00,7,4,0,0.00
2013-8-2,76,56,32,-100,-100,-100,0,0,100,0.00,40.00,6,3,0,0.00
2013-8-3,78,60,37,-100,-100,-100,0,0,100,0.00,40.00,6,3,0,0.00
2013-8-4,81,62,39,-100,-100,-100,0,0,100,0.00,40.00,6,3,0,0.00
2013-8-5,83,63,39,-100,-100,-100,0,0,100,0.00,40.00,6,3,0,0.00
2013-8-6,82,61,39,-100,-100,-100,0,0,100,0.00,40.00,7,3,0,0.00
2013-8-7,74,63,52,-100,-100,-100,0,0,100,0.00,40.00,7,3,0,0.00
2013-8-8,71,56,43,-100,-100,-100,0,0,100,0.00,40.00,5,2,0,0.00
2013-8-9,72,57,41,-100,-100,-100,0,0,100,0.00,40.00,5,3,0,0.00
2013-8-10,72,55,33,-100,-100,-100,0,0,100,0.00,40.00,6,3,0,0.00
2013-8-11,76,56,35,-100,-100,-100,0,0,100,0.00,40.00,6,2,0,0.00
2013-8-12,77,58,37,-100,-100,-100,0,0,100,0.00,40.00,6,2,0,0.00
2013-8-13,80,60,37,-100,-100,-100,0,0,100,0.00,40.00,6,3,0,0.00
2013-8-14,83,60,36,-100,-100,-100,0,0,100,0.00,40.00,6,3,0,0.00
2013-8-15,80,54,38,-100,-100,-100,0,0,100,0.00,40.00,6,3,0,0.00
2013-8-16,80,60,34,-100,-100,-100,0,0,100,0.00,40.00,6,3,0,0.00
2013-8-17,82,62,41,-100,-100,-100,0,0,100,0.00,40.00,6,3,0,0.00
2013-8-18,88,66,44,-100,-100,-100,0,0,100,0.00,40.00,5,2,0,0.00
2013-8-19,76,60,54,-100,-100,-100,0,0,100,0.00,40.00,4,1,0,0.00
2013-8-20,82,66,49,-100,-100,-100,0,0,100,0.00,40.00,5,2,0,0.00
2013-8-21,80,64,50,-100,-100,-100,0,0,100,0.00,40.00,4,2,0,0.00
2013-8-22,76,58,43,-100,-100,-100,0,0,100,0.00,40.00,7,2,0,0.00
2013-8-23,75,55,38,-100,-100,-100,0,0,100,0.00,40.00,5,2,0,0.00
2013-8-24,73,56,35,-100,-100,-100,0,0,100,0.00,40.00,6,3,0,0.00
2013-8-25,70,57,40,-100,-100,-100,0,0,100,0.00,40.00,6,3,0,0.00
2013-8-26,73,57,38,-100,-100,-100,0,0,100,0.00,40.00,7,3,0,0.00
2013-8-27,75,49,38,-100,-100,-100,0,0,100,0.00,40.00,4,2,0,0.00
2013-8-28,77,70,54,-100,-100,-100,0,0,100,0.00,40.00,6,4,0,0.00
2013-8-29,78,61,43,-100,-100,-100,0,0,100,0.00,40.00,7,3,0,0.00
2013-8-30,82,64,39,-100,-100,-100,0,0,100,0.00,40.00,5,3,0,0.00
2013-8-31,81,64,41,-100,-100,-100,0,0,100,0.00,40.00,6,3,0,0.00
2013-9-1,76,64,51,-100,-100,-100,0,0,100,0.00,40.00,5,2,0,0.00
2013-9-2,73,66,57,-100,-100,-100,0,0,100,0.00,40.00,6,3,0,0.00
2013-9-3,77,66,52,-100,-100,-100,0,0,100,0.00,40.00,6,3,0,0.00
2013-9-4,77,63,46,-100,-100,-100,0,0,100,0.00,40.00,5,2,0,0.00
2013-9-5,72,62,50,-100,-100,-100,0,0,100,0.00,40.00,7,3,0,0.00
2013-9-6,77,59,36,-100,-100,-100,0,0,100,0.00,40.00,6,3,0,0.00
2013-9-7,79,57,38,-100,-100,-100,0,0,100,0.00,40.00,5,3,0,0.00
2013-9-8,79,58,36,-100,-100,-100,0,0,100,0.00,40.00,5,2,0,0.00
2013-9-9,80,60,39,-100,-100,-100,0,0,100,0.00,40.00,6,3,0,0.00
2013-9-10,80,61,38,-100,-100,-100,0,0,100,0.00,40.00,5,2,0,0.00
2013-9-11,78,60,41,-100,-100,-100,0,0,100,0.00,40.00,6,2,0,0.00
2013-9-12,75,57,43,-100,-100,-100,0,0,100,0.00,40.00,6,2,0,0.05
2013-9-13,75,58,48,-100,-100,-100,0,0,100,0.00,40.00,4,2,0,0.06
2013-9-14,77,59,41,-100,-100,-100,0,0,100,0.00,40.00,5,2,0,0.00
2013-9-15,76,62,41,-100,-100,-100,0,0,100,0.00,40.00,6,3,0,0.00
2013-9-16,76,60,40,-100,-100,-100,0,0,100,0.00,40.00,6,3,0,0.00
2013-9-17,66,58,40,-100,-100,-100,0,0,100,0.00,40.00,6,4,0,0.00
2013-9-18,60,40,30,-100,-100,-100,0,0,100,0.00,40.00,3,2,0,0.00
2013-9-19,76,53,29,-100,-100,-100,0,0,100,0.00,40.00,6,3,0,0.00
2013-9-20,70,53,31,-100,-100,-100,0,0,100,0.00,40.00,8,4,0,0.00
2013-9-21,55,47,39,-100,-100,-100,0,0,100,0.00,40.00,6,3,0,0.38
2013-9-22,58,46,38,-100,-100,-100,0,0,100,0.00,40.00,6,2,0,0.01
2013-9-23,69,50,32,-100,-100,-100,0,0,100,0.00,40.00,6,2,0,0.00
2013-9-24,64,54,38,-100,-100,-100,0,0,100,0.00,40.00,9,4,0,0.00
2013-9-25,49,42,34,-100,-100,-100,0,0,100,0.00,40.00,7,3,0,0.04
2013-9-26,47,37,30,-100,-100,-100,0,0,100,0.00,40.00,6,2,0,0.07
2013-9-27,60,39,23,-100,-100,-100,0,0,100,0.00,40.00,5,2,0,0.03
2013-9-28,65,47,28,-100,-100,-100,0,0,100,0.00,40.00,7,2,0,0.00
2013-9-29,61,56,52,-100,-100,-100,0,0,100,0.00,40.00,7,5,0,0.00
2013-9-30,61,54,47,-100,-100,-100,0,0,100,0.00,40.00,6,4,0,0.00
2013-10-1,64,56,37,-100,-100,-100,0,0,100,0.00,40.00,6,3,0,0.00
2013-10-2,61,44,27,-100,-100,-100,0,0,100,0.00,40.00,7,3,0,0.00
2013-10-3,52,39,25,-100,-100,-100,0,0,100,0.00,40.00,9,4,0,0.00
2013-10-4,56,42,25,-100,-100,-100,0,0,100,0.00,40.00,6,3,0,0.00
2013-10-5,67,41,19,-100,-100,-100,0,0,100,0.00,40.00,6,3,0,0.00
2013-10-6,72,48,22,-100,-100,-100,0,0,100,0.00,40.00,6,3,0,0.00
2013-10-7,65,46,27,-100,-100,-100,0,0,100,0.00,40.00,6,2,0,0.00
2013-10-8,60,44,25,-100,-100,-100,0,0,100,0.00,40.00,5,2,0,0.00
2013-10-9,44,40,35,-100,-100,-100,0,0,100,0.00,40.00,6,2,0,0.04
2013-10-10,57,40,26,-100,-100,-100,0,0,100,0.00,40.00,6,2,0,0.03
2013-10-11,60,42,23,-100,-100,-100,0,0,100,0.00,40.00,5,2,0,0.00
2013-10-12,57,38,23,-100,-100,-100,0,0,100,0.00,40.00,6,2,0,0.00
2013-10-13,52,39,29,-100,-100,-100,0,0,100,0.00,40.00,6,2,0,0.00
2013-10-14,57,36,20,-100,-100,-100,0,0,100,0.00,40.00,6,2,0,0.00
2013-10-15,56,38,19,-100,-100,-100,0,0,100,0.00,40.00,7,3,0,0.00
2013-10-16,64,43,19,-100,-100,-100,0,0,100,0.00,40.00,5,2,0,0.00
2013-10-17,65,43,23,-100,-100,-100,0,0,100,0.00,40.00,6,3,0,0.00
2013-10-18,69,45,21,-100,-100,-100,0,0,100,0.00,40.00,6,3,0,0.00
2013-10-19,70,46,24,-100,-100,-100,0,0,100,0.00,40.00,5,2,0,0.00
2013-10-20,70,46,23,-100,-100,-100,0,0,100,0.00,40.00,5,2,0,0.00
2013-10-21,69,45,23,-100,-100,-100,0,0,100,0.00,40.00,6,3,0,0.00
2013-10-22,70,44,25,-100,-100,-100,0,0,100,0.00,40.00,5,2,0,0.00
2013-10-23,69,44,23,-100,-100,-100,0,0,100,0.00,40.00,5,2,0,0.00
2013-10-24,68,44,23,-100,-100,-100,0,0,100,0.00,40.00,4,3,0,0.00
2013-10-25,68,42,22,-100,-100,-100,0,0,100,0.00,40.00,4,3,0,0.00
2013-10-26,68,44,22,-100,-100,-100,0,0,100,0.00,40.00,5,2,0,0.00
2013-10-27,61,41,21,-100,-100,-100,0,0,100,0.00,40.00,7,3,0,0.00
2013-10-28,38,33,31,-100,-100,-100,0,0,100,0.00,40.00,3,1,0,0.21
2013-10-29,38,35,31,-100,-100,-100,0,0,100,0.00,40.00,2,1,0,0.25
2013-10-30,49,33,20,-100,-100,-100,0,0,100,0.00,40.00,4,2,0,0.01
2013-10-31,56,36,25,-100,-100,-100,0,0,100,0.00,40.00,4,2,0,0.01
2013-11-1,65,38,23,-100,-100,-100,0,0,100,0.00,40.00,4,2,0,0.01
2013-11-2,58,42,25,-100,-100,-100,0,0,100,0.00,40.00,4,2,0,0.01
2013-11-3,45,37,30,-100,-100,-100,0,0,100,0.00,40.00,5,2,0,0.01
2013-11-4,43,32,23,-100,-100,-100,0,0,100,0.00,40.00,8,3,0,0.00
2013-11-5,55,33,18,-100,-100,-100,0,0,100,0.00,40.00,4,2,0,0.00
2013-11-6,63,38,23,-100,-100,-100,0,0,100,0.00,40.00,3,2,0,0.00
2013-11-7,60,43,31,-100,-100,-100,0,0,100,0.00,40.00,6,2,0,0.00
2013-11-8,60,41,25,-100,-100,-100,0,0,100,0.00,40.00,5,2,0,0.00
2013-11-9,63,38,22,-100,-100,-100,0,0,100,0.00,40.00,4,2,0,0.00
2013-11-10,65,38,22,-100,-100,-100,0,0,100,0.00,40.00,4,2,0,0.00
2013-11-11,65,39,22,-100,-100,-100,0,0,100,0.00,40.00,5,2,0,0.00
2013-11-12,61,46,34,-100,-100,-100,0,0,100,0.00,40.00,3,2,0,0.00
2013-11-13,61,39,25,-100,-100,-100,0,0,100,0.00,40.00,6,2,0,0.00
2013-11-14,59,37,20,-100,-100,-100,0,0,100,0.00,40.00,5,2,0,0.00
2013-11-15,47,35,27,-100,-100,-100,0,0,100,0.00,40.00,5,2,0,0.00
2013-11-16,48,36,26,-100,-100,-100,0,0,100,0.00,40.00,4,2,0,0.00
2013-11-17,57,37,19,-100,-100,-100,0,0,100,0.00,40.00,4,2,0,0.00
2013-11-18,51,38,20,-100,-100,-100,0,0,100,0.00,40.00,7,3,0,0.00
2013-11-19,47,42,36,-100,-100,-100,0,0,100,0.00,40.00,4,2,0,0.03
2013-11-20,43,38,33,-100,-100,-100,0,0,100,0.00,40.00,3,1,0,0.33
2013-11-21,33,29,24,-100,-100,-100,0,0,100,0.00,40.00,4,0,0,0.21
2013-11-22,40,29,18,-100,-100,-100,0,0,100,0.00,40.00,7,3,0,0.12
2013-11-23,44,34,20,-100,-100,-100,0,0,100,0.00,40.00,7,4,0,0.02
2013-11-24,48,32,13,-100,-100,-100,0,0,100,0.00,40.00,5,2,0,0.00
2013-11-25,55,30,14,-100,-100,-100,0,0,100,0.00,40.00,5,2,0,0.00
2013-11-26,58,35,18,-100,-100,-100,0,0,100,0.00,40.00,4,1,0,0.00
2013-11-27,54,34,24,-100,-100,-100,0,0,100,0.00,40.00,4,2,0,0.00
2013-11-28,47,31,24,-100,-100,-100,0,0,100,0.00,40.00,5,1,0,0.00
2013-11-29,50,30,18,-100,-100,-100,0,0,100,0.00,40.00,4,2,0,0.01
2013-11-30,53,31,18,-100,-100,-100,0,0,100,0.00,40.00,4,2,0,0.01
2013-12-1,58,33,17,-100,-100,-100,0,0,100,0.00,40.00,5,2,0,0.00
2013-12-2,55,42,22,-100,-100,-100,0,0,100,0.00,40.00,5,3,0,0.01
2013-12-3,40,26,6,-100,-100,-100,0,0,100,0.00,40.00,6,3,0,0.04
2013-12-4,25,15,1,-100,-100,-100,0,0,100,0.00,40.00,4,2,0,0.02
2013-12-5,31,15,2,-100,-100,-100,0,0,100,0.00,40.00,4,2,0,0.05
2013-12-6,30,21,4,-100,-100,-100,0,0,100,0.00,40.00,5,3,0,0.05
2013-12-7,25,17,3,-100,-100,-100,0,0,100,0.00,40.00,4,2,0,0.00
2013-12-8,16,7,-8,-100,-100,-100,0,0,100,0.00,40.00,4,3,0,0.00
2013-12-9,24,11,-17,-100,-100,-100,0,0,100,0.00,40.00,4,2,0,0.04
2013-12-10,33,24,5,-100,-100,-100,0,0,100,0.00,40.00,3,2,0,0.12
2013-12-11,35,22,7,-100,-100,-100,0,0,100,0.00,40.00,3,2,0,0.09
2013-12-12,38,28,9,-100,-100,-100,0,0,100,0.00,40.00,5,3,0,0.05
2013-12-13,46,29,13,-100,-100,-100,0,0,100,0.00,40.00,4,2,0,0.00
2013-12-14,43,26,11,-100,-100,-100,0,0,100,0.00,40.00,5,2,0,0.01
2013-12-15,48,29,11,-100,-100,-100,0,0,100,0.00,40.00,5,2,0,0.01
2013-12-16,51,33,21,-100,-100,-100,0,0,100,0.00,40.00,4,2,0,0.01
2013-12-17,47,35,18,-100,-100,-100,0,0,100,0.00,40.00,3,2,0,0.00
2013-12-18,55,39,20,-100,-100,-100,0,0,100,0.00,40.00,4,2,0,0.01
2013-12-19,34,27,14,-100,-100,-100,0,0,100,0.00,40.00,8,4,0,0.01
2013-12-20,39,22,5,-100,-100,-100,0,0,100,0.00,40.00,4,2,0,0.00
2013-12-21,48,30,19,-100,-100,-100,0,0,100,0.00,40.00,4,2,0,0.01
2013-12-22,49,30,16,-100,-100,-100,0,0,100,0.00,40.00,8,2,0,0.01
2013-12-23,51,29,17,-100,-100,-100,0,0,100,0.00,40.00,5,2,0,0.01
2013-12-24,49,29,14,-100,-100,-100,0,0,100,0.00,40.00,5,2,0,0.01
2013-12-25,48,28,11,-100,-100,-100,0,0,100,0.00,40.00,4,2,0,0.01
2013-12-26,54,28,9,-100,-100,-100,0,0,100,0.00,40.00,5,2,0,0.01
2013-12-27,48,31,11,-100,-100,-100,0,0,100,0.00,40.00,4,2,0,0.00
2013-12-28,45,30,18,-100,-100,-100,0,0,100,0.00,40.00,5,3,0,0.00
2013-12-29,45,29,10,-100,-100,-100,0,0,100,0.00,40.00,3,2,0,0.00
2013-12-30,55,32,13,-100,-100,-100,0,0,100,0.00,40.00,4,2,0,0.01
2013-12-31,58,34,21,-100,-100,-100,0,0,100,0.00,40.00,3,2,0,0.01
2014-1-1,54,32,14,-100,-100,-100,0,0,100,0.00,40.00,5,2,0,0.00
2014-1-2,55,33,16,-100,-100,-100,0,0,100,0.00,40.00,5,2,0,0.00